Time;durP1;ratioP1;P1;durP2;ratioP2;P2;SDS_P1;SDS_P2;PMS_P1;PMS_P2;Temp;Humidity;BMP_temperature;BMP_pressure;BME280_temperature;BME280_humidity;BME280_pressure;Samples;Min_cycle;Max_cycle;Signal;HPM_P1;HPM_P2
2019/05/28 00:01:30;;;;;;;1.1;0.5;;;;;;;24.86;44.49316;994.3756;;;;
2019/05/28 00:03:58;;;;;;;0.6;0.6;;;;;;;24.71;44.96973;994.3108;;;;
2019/05/28 00:06:23;;;;;;;0.7;0.5;;;;;;;24.85;44.25195;994.3156;;;;
2019/05/28 00:08:52;;;;;;;0.9;0.6;;;;;;;24.87;44.13477;994.3333;;;;
2019/05/28 00:11:17;;;;;;;0.5;0.5;;;;;;;24.9;44.125;994.3024;;;;
2019/05/28 00:13:48;;;;;;;0.9;0.5;;;;;;;24.91;43.92285;994.2517;;;;
2019/05/28 00:16:13;;;;;;;0.7;0.5;;;;;;;24.92;43.88672;994.2419;;;;
2019/05/28 00:18:38;;;;;;;1.2;0.5;;;;;;;24.91;44.09082;994.2271;;;;
2019/05/28 00:21:03;;;;;;;1.3;0.5;;;;;;;24.92;43.9834;994.2567;;;;
2019/05/28 00:23:29;;;;;;;0.4;0.4;;;;;;;24.92;43.95898;994.2051;;;;
2019/05/28 00:25:53;;;;;;;0.7;0.6;;;;;;;24.93;43.88867;994.2166;;;;
2019/05/28 00:28:19;;;;;;;0.6;0.5;;;;;;;24.93;44.05664;994.2231;;;;
2019/05/28 00:30:44;;;;;;;1.7;0.5;;;;;;;24.9;44.35352;994.2311;;;;
2019/05/28 00:33:09;;;;;;;0.8;0.7;;;;;;;24.85;44.62402;994.1722;;;;
2019/05/28 00:35:34;;;;;;;0.7;0.7;;;;;;;24.85;44.38379;994.1731;;;;
2019/05/28 00:37:59;;;;;;;0.5;0.5;;;;;;;24.88;44.20801;994.1278;;;;
2019/05/28 00:40:24;;;;;;;0.6;0.6;;;;;;;24.87;44.43359;994.1301;;;;
2019/05/28 00:42:49;;;;;;;0.8;0.6;;;;;;;24.86;44.28906;994.058;;;;
2019/05/28 00:45:15;;;;;;;0.6;0.5;;;;;;;24.84;44.43164;994.0281;;;;
2019/05/28 00:47:40;;;;;;;1.1;0.7;;;;;;;24.81;44.67969;994.0123;;;;
2019/05/28 00:50:05;;;;;;;0.8;0.6;;;;;;;24.8;44.79883;993.9844;;;;
2019/05/28 00:52:30;;;;;;;1.4;0.7;;;;;;;24.78;44.91602;993.9588;;;;
2019/05/28 00:54:55;;;;;;;0.7;0.7;;;;;;;24.75;45.0332;993.8996;;;;
2019/05/28 00:57:20;;;;;;;0.6;0.6;;;;;;;24.72;45.10156;993.9433;;;;
2019/05/28 00:59:45;;;;;;;0.9;0.7;;;;;;;24.77;44.80664;994.0414;;;;
2019/05/28 01:02:11;;;;;;;0.8;0.5;;;;;;;24.78;44.84473;994.1266;;;;
2019/05/28 01:04:36;;;;;;;0.8;0.6;;;;;;;24.7;45.14746;994.2083;;;;
2019/05/28 01:07:01;;;;;;;0.8;0.5;;;;;;;24.69;45.26758;994.1714;;;;
2019/05/28 01:09:26;;;;;;;0.7;0.5;;;;;;;24.74;45.17578;994.0499;;;;
2019/05/28 01:11:51;;;;;;;1.9;0.4;;;;;;;24.72;45.1748;994.044;;;;
2019/05/28 01:14:16;;;;;;;3.6;0.8;;;;;;;24.73;45.03027;994.0383;;;;
2019/05/28 01:16:41;;;;;;;1.3;0.7;;;;;;;24.78;44.85645;994.03;;;;
2019/05/28 01:19:06;;;;;;;0.8;0.7;;;;;;;24.77;44.99902;994.0112;;;;
2019/05/28 01:21:31;;;;;;;1;0.9;;;;;;;24.72;45.03027;994.0447;;;;
2019/05/28 01:23:56;;;;;;;0.7;0.7;;;;;;;24.75;44.8418;994.0044;;;;
2019/05/28 01:26:22;;;;;;;1.1;0.7;;;;;;;24.78;44.79688;994.021;;;;
2019/05/28 01:28:47;;;;;;;1.4;0.9;;;;;;;24.79;44.66602;993.9901;;;;
2019/05/28 01:31:12;;;;;;;1.3;0.8;;;;;;;24.79;44.6416;993.9344;;;;
2019/05/28 01:33:37;;;;;;;1.2;1;;;;;;;24.72;44.79004;993.9089;;;;
2019/05/28 01:36:02;;;;;;;1.7;1;;;;;;;24.74;44.76855;993.8599;;;;
2019/05/28 01:38:27;;;;;;;1.1;1;;;;;;;24.73;44.7793;993.8934;;;;
2019/05/28 01:40:52;;;;;;;0.9;0.8;;;;;;;24.76;44.63867;993.8621;;;;
2019/05/28 01:43:17;;;;;;;1.4;0.8;;;;;;;24.75;44.57715;993.8346;;;;
2019/05/28 01:45:42;;;;;;;1.5;1.2;;;;;;;24.71;44.71875;993.8278;;;;
2019/05/28 01:48:08;;;;;;;1.3;1.2;;;;;;;24.66;44.80859;993.7636;;;;
2019/05/28 01:50:33;;;;;;;1.3;1;;;;;;;24.68;44.69043;993.7048;;;;
2019/05/28 01:52:58;;;;;;;2.3;1.3;;;;;;;24.69;44.65625;993.7294;;;;
2019/05/28 01:55:23;;;;;;;1;1;;;;;;;24.64;44.77051;993.6328;;;;
2019/05/28 01:57:48;;;;;;;1.2;1.1;;;;;;;24.68;44.57031;993.6106;;;;
2019/05/28 02:00:13;;;;;;;1.2;1.1;;;;;;;24.7;44.52539;993.6198;;;;
2019/05/28 02:02:40;;;;;;;0.9;0.9;;;;;;;24.72;44.41992;993.6528;;;;
2019/05/28 02:05:06;;;;;;;1.5;0.8;;;;;;;24.74;44.36035;993.67;;;;
2019/05/28 02:07:39;;;;;;;1.4;1.1;;;;;;;24.73;44.38379;993.7338;;;;
2019/05/28 02:10:09;;;;;;;0.9;0.9;;;;;;;24.74;44.30176;993.7871;;;;
2019/05/28 02:12:39;;;;;;;1.2;1.1;;;;;;;24.76;44.32715;993.8187;;;;
2019/05/28 02:15:04;;;;;;;1.2;1.1;;;;;;;24.75;44.2666;993.8375;;;;
2019/05/28 02:17:35;;;;;;;1.1;1;;;;;;;24.76;44.25586;993.885;;;;
2019/05/28 02:20:00;;;;;;;0.9;0.9;;;;;;;24.77;44.19531;993.8531;;;;
2019/05/28 02:22:29;;;;;;;1.4;1.3;;;;;;;24.73;44.4082;993.8369;;;;
2019/05/28 02:24:55;;;;;;;1.2;0.9;;;;;;;24.72;44.51563;993.8925;;;;
2019/05/28 02:27:22;;;;;;;1.3;1.1;;;;;;;24.65;44.61621;993.8306;;;;
2019/05/28 02:29:47;;;;;;;1.6;1;;;;;;;24.66;44.71191;993.8985;;;;
2019/05/28 02:32:12;;;;;;;1.5;1.4;;;;;;;24.51;44.9375;993.9014;;;;
2019/05/28 02:34:39;;;;;;;2.1;1.3;;;;;;;24.41;45.04688;993.9387;;;;
2019/05/28 02:37:06;;;;;;;1.5;1.1;;;;;;;24.46;45.04004;994.0302;;;;
2019/05/28 02:39:37;;;;;;;1.9;1.1;;;;;;;24.51;44.92578;993.9539;;;;
2019/05/28 02:42:02;;;;;;;1.7;1.2;;;;;;;24.54;44.89258;993.9053;;;;
2019/05/28 02:44:32;;;;;;;1.4;1;;;;;;;24.48;45.18652;993.9036;;;;
2019/05/28 02:47:02;;;;;;;1.4;0.9;;;;;;;24.53;45.02344;993.9261;;;;
2019/05/28 02:49:33;;;;;;;1.3;1;;;;;;;24.51;45.04492;993.9448;;;;
2019/05/28 02:52:00;;;;;;;1.6;1.2;;;;;;;24.51;44.94922;993.8867;;;;
2019/05/28 02:54:25;;;;;;;1.1;0.9;;;;;;;24.52;44.88965;993.8917;;;;
2019/05/28 02:56:50;;;;;;;2.6;1.2;;;;;;;24.49;45.01855;993.8284;;;;
2019/05/28 02:59:17;;;;;;;1.1;1;;;;;;;24.55;44.82129;993.8456;;;;
2019/05/28 03:01:42;;;;;;;1.3;1.1;;;;;;;24.55;44.84473;993.8326;;;;
2019/05/28 03:04:07;;;;;;;0.7;0.7;;;;;;;24.51;44.86523;993.8066;;;;
2019/05/28 03:06:33;;;;;;;1.3;1;;;;;;;24.52;44.78223;993.8;;;;
2019/05/28 03:09:03;;;;;;;1.2;1.1;;;;;;;24.49;44.92383;993.8113;;;;
2019/05/28 03:11:33;;;;;;;1.7;1.6;;;;;;;24.42;45.19141;993.8761;;;;
2019/05/28 03:13:58;;;;;;;1.7;1.6;;;;;;;24.44;45.13281;993.8876;;;;
2019/05/28 03:16:26;;;;;;;1.2;1.2;;;;;;;24.42;45.23926;993.9395;;;;
2019/05/28 03:18:51;;;;;;;1.5;1.4;;;;;;;24.39;45.30762;993.8926;;;;
2019/05/28 03:21:20;;;;;;;1.3;1.2;;;;;;;24.4;45.23828;993.856;;;;
2019/05/28 03:23:45;;;;;;;1.3;1.2;;;;;;;24.34;45.39844;993.8708;;;;
2019/05/28 03:26:11;;;;;;;2.2;1.1;;;;;;;24.41;45.11914;993.8862;;;;
2019/05/28 03:28:40;;;;;;;1.4;1.1;;;;;;;24.38;45.29492;993.9155;;;;
2019/05/28 03:31:05;;;;;;;1.3;1.2;;;;;;;24.34;45.39941;993.9863;;;;
2019/05/28 03:33:30;;;;;;;1.4;1.3;;;;;;;24.35;45.4834;993.9691;;;;
2019/05/28 03:35:55;;;;;;;1.3;1.1;;;;;;;24.37;45.2334;993.9701;;;;
2019/05/28 03:38:20;;;;;;;1.3;1.2;;;;;;;24.41;45.10645;993.9918;;;;
2019/05/28 03:40:45;;;;;;;2.2;1.3;;;;;;;24.42;45.05957;994.0206;;;;
2019/05/28 03:43:10;;;;;;;1.4;1.3;;;;;;;24.39;45.14063;993.9835;;;;
2019/05/28 03:45:40;;;;;;;1.4;1.3;;;;;;;24.35;45.23145;994.0239;;;;
2019/05/28 03:48:05;;;;;;;1.4;1.2;;;;;;;24.3;45.51465;993.9982;;;;
2019/05/28 03:50:33;;;;;;;1.6;1.5;;;;;;;24.22;45.62598;994.0006;;;;
2019/05/28 03:52:58;;;;;;;2.5;1.3;;;;;;;24.24;45.56738;994.0058;;;;
2019/05/28 03:55:24;;;;;;;1.6;1.5;;;;;;;24.24;45.49609;994.0081;;;;
2019/05/28 03:57:49;;;;;;;1.3;1.2;;;;;;;24.28;45.35742;994.0283;;;;
2019/05/28 04:02:26;;;;;;;1.9;1.5;;;;;;;24.27;45.4043;993.9995;;;;
2019/05/28 04:04:52;;;;;;;1.5;1.2;;;;;;;24.28;45.26074;994.0062;;;;
2019/05/28 04:07:17;;;;;;;1.4;1.3;;;;;;;24.26;45.29492;993.9504;;;;
2019/05/28 04:09:42;;;;;;;1.5;1.3;;;;;;;24.3;45.16699;993.9655;;;;
2019/05/28 04:12:07;;;;;;;1.7;1.3;;;;;;;24.29;45.19043;993.9792;;;;
2019/05/28 04:14:32;;;;;;;1.1;1.1;;;;;;;24.34;45.00391;993.9731;;;;
2019/05/28 04:17:04;;;;;;;2.9;1.6;;;;;;;24.31;45.14355;993.938;;;;
2019/05/28 04:19:29;;;;;;;1.3;1.2;;;;;;;24.25;45.24609;993.9536;;;;
2019/05/28 04:21:54;;;;;;;1.4;1.3;;;;;;;24.31;45.09668;993.9512;;;;
2019/05/28 04:24:19;;;;;;;1.5;1.4;;;;;;;24.25;45.22168;993.8775;;;;
2019/05/28 04:26:45;;;;;;;2.2;1.5;;;;;;;24.26;45.28223;993.9192;;;;
2019/05/28 04:29:10;;;;;;;1.5;1.4;;;;;;;24.29;45.20215;993.9695;;;;
2019/05/28 04:31:35;;;;;;;1.9;1.4;;;;;;;24.27;45.27246;993.9669;;;;
2019/05/28 04:34:00;;;;;;;1.5;1.3;;;;;;;24.31;45.12012;994.0567;;;;
2019/05/28 04:36:25;;;;;;;1.9;1.3;;;;;;;24.35;45.05176;994.0566;;;;
2019/05/28 04:38:50;;;;;;;1.3;1.2;;;;;;;24.31;45.09668;994.0076;;;;
2019/05/28 04:41:15;;;;;;;2.6;1.3;;;;;;;24.32;45.0498;994.0302;;;;
2019/05/28 04:43:44;;;;;;;1.3;1.2;;;;;;;24.34;44.96777;994.1015;;;;
2019/05/28 04:46:09;;;;;;;2.2;1;;;;;;;24.36;44.81445;994.0633;;;;
2019/05/28 04:48:36;;;;;;;1.4;1.3;;;;;;;24.31;44.94043;994.0093;;;;
2019/05/28 04:51:01;;;;;;;1.9;1.2;;;;;;;24.33;44.82324;993.9975;;;;
2019/05/28 04:53:31;;;;;;;2.5;1.3;;;;;;;24.36;44.87402;994.0453;;;;
2019/05/28 04:55:56;;;;;;;2.1;1.1;;;;;;;24.42;44.76074;994.0561;;;;
2019/05/28 04:58:25;;;;;;;1.9;1.4;;;;;;;24.43;44.66602;994.0538;;;;
2019/05/28 05:00:50;;;;;;;1.7;1.6;;;;;;;24.37;44.70898;994.0266;;;;
2019/05/28 05:03:22;;;;;;;2.3;1.4;;;;;;;24.34;44.84766;994.0761;;;;
2019/05/28 05:05:47;;;;;;;1.4;1.3;;;;;;;24.38;44.69629;994.1142;;;;
2019/05/28 05:08:18;;;;;;;1.9;1.4;;;;;;;24.42;44.56836;994.0942;;;;
2019/05/28 05:10:43;;;;;;;2.3;1.5;;;;;;;24.33;44.71484;994.0916;;;;
2019/05/28 05:13:11;;;;;;;1.4;1.3;;;;;;;24.36;44.64551;994.0698;;;;
2019/05/28 05:15:36;;;;;;;1.7;1.6;;;;;;;24.23;44.89648;994.0726;;;;
2019/05/28 05:18:04;;;;;;;3.2;1.8;;;;;;;24.27;44.81738;994.1035;;;;
2019/05/28 05:20:29;;;;;;;2.1;1.7;;;;;;;24.27;44.76953;994.0944;;;;
2019/05/28 05:22:54;;;;;;;2.4;1.5;;;;;;;24.31;44.71289;994.1418;;;;
2019/05/28 05:25:24;;;;;;;2.6;1.6;;;;;;;24.2;44.9541;994.1638;;;;
2019/05/28 05:27:52;;;;;;;2.5;1.4;;;;;;;24.25;44.80273;994.1342;;;;
2019/05/28 05:30:18;;;;;;;1.5;1.3;;;;;;;24.23;44.7998;994.1275;;;;
2019/05/28 05:32:44;;;;;;;2.2;1.3;;;;;;;24.27;44.70996;994.1525;;;;
2019/05/28 05:35:09;;;;;;;2;1.3;;;;;;;24.32;44.59473;994.1814;;;;
2019/05/28 05:37:34;;;;;;;1.5;1.2;;;;;;;24.3;44.59277;994.1806;;;;
2019/05/28 05:40:03;;;;;;;2.3;1.5;;;;;;;24.32;44.53516;994.2216;;;;
2019/05/28 05:42:28;;;;;;;1.6;1.5;;;;;;;24.37;44.33691;994.254;;;;
2019/05/28 05:44:59;;;;;;;1.8;1.5;;;;;;;24.3;44.54492;994.2714;;;;
2019/05/28 05:47:24;;;;;;;1.7;1.4;;;;;;;24.25;44.69531;994.2586;;;;
2019/05/28 05:49:51;;;;;;;1.7;1.6;;;;;;;24.35;44.43066;994.2881;;;;
2019/05/28 05:52:16;;;;;;;1.9;1.7;;;;;;;24.35;44.41895;994.293;;;;
2019/05/28 05:54:43;;;;;;;1.6;1.5;;;;;;;24.31;44.53418;994.2211;;;;
2019/05/28 05:57:09;;;;;;;2.1;1.6;;;;;;;24.32;44.4873;994.2274;;;;
2019/05/28 05:59:38;;;;;;;2.3;1.6;;;;;;;24.31;44.49805;994.2922;;;;
2019/05/28 06:02:04;;;;;;;2.7;1.7;;;;;;;24.35;44.38281;994.3405;;;;
2019/05/28 06:04:33;;;;;;;2.3;1.7;;;;;;;24.37;44.32422;994.3416;;;;
2019/05/28 06:06:59;;;;;;;1.5;1.4;;;;;;;24.38;44.22949;994.3506;;;;
2019/05/28 06:09:29;;;;;;;1.7;1.6;;;;;;;24.43;44.11523;994.3794;;;;
2019/05/28 06:11:59;;;;;;;1.7;1.5;;;;;;;24.48;43.96387;994.3519;;;;
2019/05/28 06:14:24;;;;;;;2.1;1.8;;;;;;;24.46;44.03418;994.319;;;;
2019/05/28 06:16:49;;;;;;;1.8;1.7;;;;;;;24.51;43.89453;994.3261;;;;
2019/05/28 06:19:14;;;;;;;2.2;1.6;;;;;;;24.49;43.91699;994.307;;;;
2019/05/28 06:21:39;;;;;;;3.4;2;;;;;;;24.6;43.63965;994.3674;;;;
2019/05/28 06:24:05;;;;;;;2;1.7;;;;;;;24.64;43.51367;994.3796;;;;
2019/05/28 06:26:30;;;;;;;2.5;1.7;;;;;;;24.75;43.22461;994.4039;;;;
2019/05/28 06:28:55;;;;;;;1.8;1.7;;;;;;;24.68;43.32422;994.3947;;;;
2019/05/28 06:31:20;;;;;;;3.1;1.8;;;;;;;24.61;43.58203;994.3855;;;;
2019/05/28 06:33:49;;;;;;;3.9;2;;;;;;;24.61;43.50977;994.3879;;;;
2019/05/28 06:36:17;;;;;;;2.3;1.7;;;;;;;24.67;43.32422;994.375;;;;
2019/05/28 06:38:42;;;;;;;4.2;1.9;;;;;;;24.68;43.28809;994.3972;;;;
2019/05/28 06:41:07;;;;;;;1.9;1.7;;;;;;;24.72;43.18555;994.4049;;;;
2019/05/28 06:43:32;;;;;;;1.9;1.4;;;;;;;24.69;43.20605;994.3997;;;;
2019/05/28 06:45:57;;;;;;;2.2;1.7;;;;;;;24.65;43.27441;994.4125;;;;
2019/05/28 06:48:23;;;;;;;2.3;1.9;;;;;;;24.73;43.07813;994.3853;;;;
2019/05/28 06:50:48;;;;;;;2.4;1.9;;;;;;;24.68;43.16895;994.4086;;;;
2019/05/28 06:53:13;;;;;;;1.6;1.5;;;;;;;24.77;42.96289;994.4205;;;;
2019/05/28 06:55:43;;;;;;;2.7;1.6;;;;;;;24.79;43.02441;994.4419;;;;
2019/05/28 06:58:08;;;;;;;3;1.4;;;;;;;24.82;42.89551;994.4422;;;;
2019/05/28 07:00:37;;;;;;;2.9;1.6;;;;;;;24.85;42.77832;994.4334;;;;
2019/05/28 07:03:02;;;;;;;2.1;1.4;;;;;;;24.83;42.74121;994.5217;;;;
2019/05/28 07:05:27;;;;;;;2.4;1.5;;;;;;;24.9;42.56738;994.5734;;;;
2019/05/28 07:07:55;;;;;;;1.9;1.7;;;;;;;24.95;42.4043;994.5762;;;;
2019/05/28 07:10:20;;;;;;;3.6;1.6;;;;;;;24.97;42.40723;994.5874;;;;
2019/05/28 07:12:47;;;;;;;1.7;1.6;;;;;;;24.98;42.43164;994.6161;;;;
2019/05/28 07:15:13;;;;;;;2.8;1.6;;;;;;;24.88;42.5293;994.6018;;;;
2019/05/28 07:17:43;;;;;;;3.5;2.1;;;;;;;24.75;42.8291;994.6183;;;;
2019/05/28 07:20:08;;;;;;;3;2;;;;;;;24.61;43.03125;994.6581;;;;
2019/05/28 07:22:33;;;;;;;3.4;2.3;;;;;;;24.58;42.88477;994.6365;;;;
2019/05/28 07:24:58;;;;;;;3.8;2.1;;;;;;;24.55;42.83398;994.5928;;;;
2019/05/28 07:27:30;;;;;;;4.5;2.3;;;;;;;24.47;42.95703;994.6571;;;;
2019/05/28 07:29:55;;;;;;;4;2;;;;;;;24.37;43.22461;994.6647;;;;
2019/05/28 07:32:24;;;;;;;3.3;2.1;;;;;;;24.36;43.24609;994.6523;;;;
2019/05/28 07:34:53;;;;;;;3.5;2.1;;;;;;;24.39;43.18848;994.5806;;;;
2019/05/28 07:37:18;;;;;;;2.7;2.1;;;;;;;24.42;43.02441;994.5703;;;;
2019/05/28 07:39:49;;;;;;;3.1;2.1;;;;;;;24.35;43.06641;994.6415;;;;
2019/05/28 07:42:19;;;;;;;2.9;1.9;;;;;;;24.32;42.95508;994.6591;;;;
2019/05/28 07:44:44;;;;;;;3.1;1.9;;;;;;;24.26;42.91309;994.6987;;;;
2019/05/28 07:47:13;;;;;;;3.6;2.1;;;;;;;24.19;42.70313;994.7098;;;;
2019/05/28 07:49:38;;;;;;;3.9;2.1;;;;;;;24.14;42.66211;994.7076;;;;
2019/05/28 07:52:08;;;;;;;3.1;1.7;;;;;;;24.22;42.57422;994.7416;;;;
2019/05/28 07:54:33;;;;;;;3.9;1.7;;;;;;;24.42;42.27051;994.7491;;;;
2019/05/28 07:57:02;;;;;;;3.2;1.7;;;;;;;24.56;41.90039;994.7852;;;;
2019/05/28 07:59:27;;;;;;;2.3;1.7;;;;;;;24.59;41.91504;994.8059;;;;
2019/05/28 08:01:55;;;;;;;3.3;1.8;;;;;;;24.68;41.61133;994.8539;;;;
2019/05/28 08:04:20;;;;;;;3.6;1.5;;;;;;;24.66;41.59766;994.8544;;;;
2019/05/28 08:06:50;;;;;;;2.8;1.5;;;;;;;24.66;41.49121;994.83;;;;
2019/05/28 08:09:17;;;;;;;2.1;1.3;;;;;;;24.64;41.25;994.7897;;;;
2019/05/28 08:11:46;;;;;;;3.1;1.5;;;;;;;24.47;41.74805;994.7946;;;;
2019/05/28 08:14:16;;;;;;;2.7;1.7;;;;;;;24.55;41.55176;994.8677;;;;
2019/05/28 08:16:49;;;;;;;4.3;1.7;;;;;;;24.6;41.37695;994.8412;;;;
2019/05/28 08:19:19;;;;;;;3.6;1.7;;;;;;;24.51;41.48926;994.9357;;;;
2019/05/28 08:21:48;;;;;;;2.5;1.5;;;;;;;24.42;41.61133;994.9139;;;;
2019/05/28 08:24:14;;;;;;;3.3;1.6;;;;;;;24.56;41.40918;994.9292;;;;
2019/05/28 08:26:45;;;;;;;3.5;1.8;;;;;;;24.54;41.21582;994.9633;;;;
2019/05/28 08:29:15;;;;;;;1.6;1.4;;;;;;;24.54;41.17969;995.0239;;;;
2019/05/28 08:31:40;;;;;;;2.5;1.4;;;;;;;24.58;41.24316;995.0481;;;;
2019/05/28 08:34:05;;;;;;;3;1.5;;;;;;;24.69;40.9668;995.0496;;;;
2019/05/28 08:36:32;;;;;;;3.1;1.3;;;;;;;24.71;41.2793;995.0873;;;;
2019/05/28 08:38:57;;;;;;;4.6;1.8;;;;;;;24.75;41.23535;995.0527;;;;
2019/05/28 08:41:27;;;;;;;3.9;1.3;;;;;;;24.75;41.41504;995.0787;;;;
2019/05/28 08:43:52;;;;;;;4.4;1.6;;;;;;;24.82;42.04395;995.1175;;;;
2019/05/28 08:46:22;;;;;;;3.7;1.7;;;;;;;24.83;41.8418;995.093;;;;
2019/05/28 08:49:45;;;;;;;4.6;1.6;;;;;;;24.88;41.4873;995.1373;;;;
2019/05/28 08:52:10;;;;;;;5.5;1.9;;;;;;;24.94;41.27734;995.1264;;;;
2019/05/28 08:54:35;;;;;;;4.2;1.3;;;;;;;25.02;41.32031;995.145;;;;
2019/05/28 08:57:00;;;;;;;3.1;1.3;;;;;;;25.08;40.54688;995.1394;;;;
2019/05/28 08:59:25;;;;;;;3.4;1.5;;;;;;;25.13;40.34766;995.1488;;;;
2019/05/28 09:01:50;;;;;;;4.4;1.7;;;;;;;25.26;40.21484;995.1453;;;;
2019/05/28 09:04:15;;;;;;;3.9;1.4;;;;;;;25.35;39.95801;995.1177;;;;
2019/05/28 09:06:40;;;;;;;2.6;1.3;;;;;;;25.32;39.9082;995.0731;;;;
2019/05/28 09:09:06;;;;;;;4.1;1.3;;;;;;;25.32;39.9209;995.1511;;;;
2019/05/28 09:11:31;;;;;;;4.1;1.2;;;;;;;25.32;39.8252;995.1567;;;;
2019/05/28 09:13:56;;;;;;;3.4;1.4;;;;;;;25.32;39.76465;995.1879;;;;
2019/05/28 09:16:21;;;;;;;2.5;1.2;;;;;;;25.39;39.13477;995.2238;;;;
2019/05/28 09:18:46;;;;;;;3;1.1;;;;;;;25.42;38.63379;995.2537;;;;
2019/05/28 09:21:11;;;;;;;2.6;1;;;;;;;25.43;38.61035;995.2022;;;;
2019/05/28 09:23:36;;;;;;;3.7;1.2;;;;;;;25.39;39.1709;995.2238;;;;
2019/05/28 09:26:01;;;;;;;4.6;1.2;;;;;;;25.36;38.60449;995.2464;;;;
2019/05/28 09:28:27;;;;;;;2.5;1.2;;;;;;;25.35;38.62793;995.2684;;;;
2019/05/28 09:30:52;;;;;;;5.9;1.2;;;;;;;25.29;39.58203;995.29;;;;
2019/05/28 09:33:17;;;;;;;3.2;1.1;;;;;;;25.34;38.80664;995.3339;;;;
2019/05/28 09:35:42;;;;;;;2.9;1.1;;;;;;;25.29;38.76563;995.3134;;;;
2019/05/28 09:38:07;;;;;;;2.3;1;;;;;;;25.32;38.48047;995.3337;;;;
2019/05/28 09:40:32;;;;;;;3.6;1.1;;;;;;;25.31;38.37207;995.3795;;;;
2019/05/28 09:42:57;;;;;;;1.8;0.9;;;;;;;25.29;38.47852;995.32;;;;
2019/05/28 09:45:22;;;;;;;2.7;0.9;;;;;;;25.31;37.77246;995.3222;;;;
2019/05/28 09:47:48;;;;;;;2.7;0.8;;;;;;;25.33;37.52246;995.4117;;;;
2019/05/28 09:50:13;;;;;;;2;1.1;;;;;;;25.34;38.4707;995.4478;;;;
2019/05/28 09:52:39;;;;;;;2.6;0.9;;;;;;;25.41;37.42188;995.4864;;;;
2019/05/28 09:55:05;;;;;;;2.1;0.9;;;;;;;25.4;37.98438;995.4429;;;;
2019/05/28 09:57:29;;;;;;;2;0.8;;;;;;;25.48;37.73828;995.432;;;;
2019/05/28 09:59:54;;;;;;;3.2;1.1;;;;;;;25.52;37.53906;995.4573;;;;
2019/05/28 10:02:20;;;;;;;2.8;0.9;;;;;;;25.57;36.81055;995.465;;;;
2019/05/28 10:04:45;;;;;;;2.9;1;;;;;;;25.62;36.40625;995.4911;;;;
2019/05/28 10:07:10;;;;;;;3.8;1;;;;;;;25.63;36.32324;995.5519;;;;
2019/05/28 10:09:35;;;;;;;2.3;0.9;;;;;;;25.62;36.19043;995.533;;;;
2019/05/28 10:12:00;;;;;;;3.5;1.1;;;;;;;25.64;36.12012;995.5192;;;;
2019/05/28 10:14:25;;;;;;;4.3;1.1;;;;;;;25.67;36.69922;995.5136;;;;
2019/05/28 10:16:51;;;;;;;5.4;1;;;;;;;25.71;36.73828;995.5823;;;;
2019/05/28 10:19:16;;;;;;;3.1;0.9;;;;;;;25.73;36.65527;995.5385;;;;
2019/05/28 10:21:41;;;;;;;4;1;;;;;;;25.75;36.33301;995.6362;;;;
2019/05/28 10:24:06;;;;;;;4.3;1;;;;;;;25.72;36.55762;995.5684;;;;
2019/05/28 10:26:31;;;;;;;3.2;0.8;;;;;;;25.72;36.73828;995.62;;;;
2019/05/28 10:28:56;;;;;;;4.6;1.2;;;;;;;25.74;36.47559;995.5934;;;;
2019/05/28 10:31:22;;;;;;;3.6;1;;;;;;;25.79;36.24023;995.5692;;;;
2019/05/28 10:33:47;;;;;;;2.4;0.9;;;;;;;25.79;35.9043;995.5938;;;;
2019/05/28 10:36:12;;;;;;;3.4;1.1;;;;;;;25.77;35.80566;995.6092;;;;
2019/05/28 10:38:37;;;;;;;2.6;1;;;;;;;25.77;35.6377;995.6323;;;;
2019/05/28 10:41:02;;;;;;;3;1.1;;;;;;;25.78;35.55469;995.6675;;;;
2019/05/28 10:43:27;;;;;;;5.8;1.2;;;;;;;25.83;35.60742;995.6166;;;;
2019/05/28 10:45:53;;;;;;;3.2;1;;;;;;;25.82;35.53418;995.6277;;;;
2019/05/28 10:48:17;;;;;;;2.9;1;;;;;;;25.86;35.45215;995.675;;;;
2019/05/28 10:50:42;;;;;;;2.2;0.9;;;;;;;25.82;35.4375;995.6629;;;;
2019/05/28 10:53:08;;;;;;;5.2;1.2;;;;;;;25.85;35.21191;995.6667;;;;
2019/05/28 10:55:33;;;;;;;2.6;1;;;;;;;25.85;34.93652;995.6019;;;;
2019/05/28 10:57:58;;;;;;;3.2;0.9;;;;;;;25.87;34.78125;995.593;;;;
2019/05/28 11:00:23;;;;;;;2.2;0.8;;;;;;;25.8;34.77637;995.6578;;;;
2019/05/28 11:02:48;;;;;;;3.6;1.2;;;;;;;25.61;34.50879;995.6063;;;;
2019/05/28 11:05:13;;;;;;;4.1;1.2;;;;;;;25.44;34.45996;995.5661;;;;
2019/05/28 11:07:39;;;;;;;3.5;1.4;;;;;;;25.42;34.21875;995.6019;;;;
2019/05/28 11:10:04;;;;;;;3.6;1;;;;;;;25.54;34.27539;995.5876;;;;
2019/05/28 11:12:29;;;;;;;3.8;1.1;;;;;;;25.62;34.60645;995.5173;;;;
2019/05/28 11:14:54;;;;;;;4.7;1.2;;;;;;;25.62;34.5332;995.4886;;;;
2019/05/28 11:17:19;;;;;;;5.3;1;;;;;;;25.67;35.36621;995.5481;;;;
2019/05/28 11:19:44;;;;;;;3.2;1;;;;;;;25.68;35.43848;995.5948;;;;
2019/05/28 11:22:09;;;;;;;3.3;0.9;;;;;;;25.7;34.47949;995.5707;;;;
2019/05/28 11:24:34;;;;;;;2.8;0.8;;;;;;;25.73;34.35059;995.5786;;;;
2019/05/28 11:26:59;;;;;;;3.3;0.9;;;;;;;25.71;34.3125;995.5217;;;;
2019/05/28 11:29:24;;;;;;;2;0.8;;;;;;;25.74;33.91895;995.5311;;;;
2019/05/28 11:31:50;;;;;;;2.6;0.7;;;;;;;25.78;33.70605;995.5397;;;;
2019/05/28 11:34:15;;;;;;;2.9;0.9;;;;;;;25.77;33.7168;995.5617;;;;
2019/05/28 11:36:40;;;;;;;3.6;1;;;;;;;25.75;33.88281;995.6075;;;;
2019/05/28 11:39:05;;;;;;;2.6;0.9;;;;;;;25.73;34.01367;995.6516;;;;
2019/05/28 11:41:30;;;;;;;4;1;;;;;;;25.71;34.04883;995.6741;;;;
2019/05/28 11:43:55;;;;;;;1.9;0.7;;;;;;;25.72;34.02539;995.666;;;;
2019/05/28 11:46:20;;;;;;;2.1;0.8;;;;;;;25.73;34.01367;995.6417;;;;
2019/05/28 11:48:45;;;;;;;4.6;1;;;;;;;25.76;33.83594;995.687;;;;
2019/05/28 11:51:11;;;;;;;2.5;0.7;;;;;;;25.81;33.90039;995.6833;;;;
2019/05/28 11:53:35;;;;;;;3;0.9;;;;;;;25.8;33.8877;995.6948;;;;
2019/05/28 11:56:00;;;;;;;2.8;0.8;;;;;;;25.76;35.00098;995.6846;;;;
2019/05/28 11:58:25;;;;;;;2.6;0.8;;;;;;;25.71;34.34863;995.6372;;;;
2019/05/28 12:00:50;;;;;;;3.1;0.7;;;;;;;25.67;34.16602;995.5989;;;;
2019/05/28 12:03:16;;;;;;;2.5;1;;;;;;;25.67;34.12891;995.5652;;;;
2019/05/28 12:05:41;;;;;;;3.3;0.9;;;;;;;25.63;34.41504;995.5764;;;;
2019/05/28 12:08:06;;;;;;;2.7;0.9;;;;;;;25.67;34.66992;995.5694;;;;
2019/05/28 12:10:31;;;;;;;2.5;0.7;;;;;;;25.69;34.85156;995.5272;;;;
2019/05/28 12:12:56;;;;;;;3.3;0.8;;;;;;;25.71;35.57324;995.5306;;;;
2019/05/28 12:15:21;;;;;;;4.3;1;;;;;;;25.71;36.47363;995.5109;;;;
2019/05/28 12:17:46;;;;;;;4.4;1;;;;;;;25.81;37.22656;995.5382;;;;
2019/05/28 12:20:11;;;;;;;3.5;0.9;;;;;;;25.83;35.41406;995.462;;;;
2019/05/28 12:22:37;;;;;;;4.2;0.9;;;;;;;25.78;34.89355;995.442;;;;
2019/05/28 12:25:02;;;;;;;3.3;0.9;;;;;;;25.78;34.7627;995.47;;;;
2019/05/28 12:27:27;;;;;;;3.2;0.8;;;;;;;25.79;34.88379;995.416;;;;
2019/05/28 12:29:52;;;;;;;4.1;0.8;;;;;;;25.77;34.67676;995.4625;;;;
2019/05/28 12:32:17;;;;;;;4;0.9;;;;;;;25.77;34.86914;995.474;;;;
2019/05/28 12:34:42;;;;;;;3.2;0.8;;;;;;;25.8;35.12305;995.5323;;;;
2019/05/28 12:37:07;;;;;;;6.1;0.6;;;;;;;25.87;34.66113;995.552;;;;
2019/05/28 12:39:32;;;;;;;2.9;0.8;;;;;;;25.81;33.73145;995.4709;;;;
2019/05/28 12:41:58;;;;;;;2.8;0.7;;;;;;;25.78;33.2373;995.5355;;;;
2019/05/28 12:44:25;;;;;;;3.8;0.7;;;;;;;25.93;35.24219;995.5598;;;;
2019/05/28 12:46:50;;;;;;;4;0.9;;;;;;;25.91;33.83496;995.5359;;;;
2019/05/28 12:49:15;;;;;;;2.6;0.5;;;;;;;25.88;33.06445;995.5775;;;;
2019/05/28 12:51:42;;;;;;;1.7;0.6;;;;;;;25.93;33.68066;995.5253;;;;
2019/05/28 12:54:07;;;;;;;3.1;0.9;;;;;;;25.92;32.95898;995.5302;;;;
2019/05/28 12:56:32;;;;;;;2.8;0.6;;;;;;;25.92;33.13965;995.5351;;;;
2019/05/28 12:58:57;;;;;;;2.7;0.8;;;;;;;25.94;34.18652;995.5024;;;;
2019/05/28 13:01:22;;;;;;;2.1;0.7;;;;;;;25.97;34.63184;995.5045;;;;
2019/05/28 13:03:47;;;;;;;1.9;0.8;;;;;;;25.95;33.02148;995.4085;;;;
2019/05/28 13:06:12;;;;;;;3.3;0.7;;;;;;;25.99;32.96484;995.5047;;;;
2019/05/28 13:08:37;;;;;;;4.7;1;;;;;;;26;33.36133;995.4851;;;;
2019/05/28 13:11:02;;;;;;;2.2;0.7;;;;;;;25.99;33.04883;995.5244;;;;
2019/05/28 13:13:27;;;;;;;4.5;0.9;;;;;;;26;32.94141;995.5966;;;;
2019/05/28 13:15:53;;;;;;;3;0.8;;;;;;;25.97;33.22754;995.548;;;;
2019/05/28 13:18:18;;;;;;;4.2;0.7;;;;;;;25.97;33.11816;995.7457;;;;
2019/05/28 13:20:43;;;;;;;3.4;0.6;;;;;;;25.94;32.82813;995.7386;;;;
2019/05/28 13:23:08;;;;;;;3.4;0.7;;;;;;;25.94;32.76855;995.8365;;;;
2019/05/28 13:25:33;;;;;;;5.4;0.7;;;;;;;25.95;32.28906;995.8391;;;;
2019/05/28 13:27:58;;;;;;;2.5;0.5;;;;;;;26.01;32.1123;995.8681;;;;
2019/05/28 13:30:23;;;;;;;1.9;0.7;;;;;;;26.02;31.89746;995.915;;;;
2019/05/28 13:32:49;;;;;;;3;0.7;;;;;;;26;32.37695;995.9559;;;;
2019/05/28 13:35:16;;;;;;;2.7;0.7;;;;;;;25.94;32.66113;995.9026;;;;
2019/05/28 13:37:41;;;;;;;1.8;0.7;;;;;;;25.98;32.13477;995.8967;;;;
2019/05/28 13:40:06;;;;;;;1.7;0.9;;;;;;;25.94;32.6123;995.8706;;;;
2019/05/28 13:42:32;;;;;;;3.2;0.8;;;;;;;25.84;32.82227;995.7569;;;;
2019/05/28 13:45:04;;;;;;;2;0.7;;;;;;;25.9;32.86133;995.7367;;;;
2019/05/28 13:47:29;;;;;;;3.3;0.6;;;;;;;25.92;32.64746;995.8041;;;;
2019/05/28 13:49:55;;;;;;;2.5;0.7;;;;;;;25.91;32.57422;995.7589;;;;
2019/05/28 13:52:20;;;;;;;4;0.8;;;;;;;25.91;32.3584;995.7885;;;;
2019/05/28 13:54:45;;;;;;;4.4;0.8;;;;;;;25.91;32.35742;995.7859;;;;
2019/05/28 13:57:10;;;;;;;2.9;0.7;;;;;;;25.78;32.64844;995.7659;;;;
2019/05/28 13:59:35;;;;;;;1.6;0.6;;;;;;;25.85;32.62988;995.7856;;;;
2019/05/28 14:02:01;;;;;;;3.8;0.6;;;;;;;25.87;32.63184;995.7899;;;;
2019/05/28 14:04:25;;;;;;;1.6;0.5;;;;;;;25.87;33.08789;995.7784;;;;
2019/05/28 14:06:50;;;;;;;2.4;1;;;;;;;25.89;32.34473;995.7719;;;;
2019/05/28 14:09:16;;;;;;;1.9;0.6;;;;;;;25.88;32.47656;995.7949;;;;
2019/05/28 14:11:41;;;;;;;2.7;0.6;;;;;;;25.88;32.3916;995.7891;;;;
2019/05/28 14:14:06;;;;;;;2;0.8;;;;;;;25.8;32.64941;995.7849;;;;
2019/05/28 14:16:31;;;;;;;2.4;0.6;;;;;;;25.89;32.04395;995.7957;;;;
2019/05/28 14:18:57;;;;;;;3.2;0.6;;;;;;;25.86;32.33105;995.8193;;;;
2019/05/28 14:21:22;;;;;;;1.6;0.6;;;;;;;25.9;32.51367;995.895;;;;